sensor_id;sensor_type;location;lat;lon;timestamp;P1;durP1;ratioP1;P2;durP2;ratioP2
19575;SDS011;41589;51.196;7.074;2023-04-03T00:04:40;1.40;;;1.40;;
19575;SDS011;41589;51.196;7.074;2023-04-03T00:09:40;1.20;;;1.20;;
19575;SDS011;41589;51.196;7.074;2023-04-03T00:14:41;1.40;;;1.30;;
19575;SDS011;41589;51.196;7.074;2023-04-03T00:19:41;1.23;;;1.23;;
19575;SDS011;41589;51.196;7.074;2023-04-03T00:24:41;1.10;;;1.10;;
19575;SDS011;41589;51.196;7.074;2023-04-03T00:29:42;1.10;;;1.10;;
19575;SDS011;41589;51.196;7.074;2023-04-03T00:34:43;1.40;;;1.40;;
19575;SDS011;41589;51.196;7.074;2023-04-03T00:39:43;1.30;;;1.30;;
19575;SDS011;41589;51.196;7.074;2023-04-03T00:49:44;1.20;;;1.13;;
19575;SDS011;41589;51.196;7.074;2023-04-03T00:54:45;1.10;;;1.10;;
19575;SDS011;41589;51.196;7.074;2023-04-03T00:59:52;1.30;;;1.20;;
19575;SDS011;41589;51.196;7.074;2023-04-03T01:05:01;1.20;;;1.20;;
19575;SDS011;41589;51.196;7.074;2023-04-03T01:10:04;1.37;;;1.10;;
19575;SDS011;41589;51.196;7.074;2023-04-03T01:15:11;1.30;;;1.20;;
19575;SDS011;41589;51.196;7.074;2023-04-03T01:25:43;1.60;;;1.50;;
19575;SDS011;41589;51.196;7.074;2023-04-03T01:30:50;1.17;;;1.17;;
19575;SDS011;41589;51.196;7.074;2023-04-03T01:35:57;1.50;;;1.40;;
19575;SDS011;41589;51.196;7.074;2023-04-03T01:40:58;1.30;;;1.30;;
19575;SDS011;41589;51.196;7.074;2023-04-03T01:45:58;1.40;;;1.30;;
19575;SDS011;41589;51.196;7.074;2023-04-03T01:50:59;1.40;;;1.30;;
19575;SDS011;41589;51.196;7.074;2023-04-03T01:55:59;1.33;;;1.30;;
19575;SDS011;41589;51.196;7.074;2023-04-03T02:01:01;1.30;;;1.30;;
19575;SDS011;41589;51.196;7.074;2023-04-03T02:06:03;1.60;;;1.50;;
19575;SDS011;41589;51.196;7.074;2023-04-03T02:11:03;1.20;;;1.20;;
19575;SDS011;41589;51.196;7.074;2023-04-03T02:16:07;1.30;;;1.30;;
19575;SDS011;41589;51.196;7.074;2023-04-03T02:21:09;1.40;;;1.40;;
19575;SDS011;41589;51.196;7.074;2023-04-03T02:26:11;1.10;;;1.10;;
19575;SDS011;41589;51.196;7.074;2023-04-03T02:31:13;1.20;;;1.20;;
19575;SDS011;41589;51.196;7.074;2023-04-03T02:36:16;1.43;;;1.33;;
19575;SDS011;41589;51.196;7.074;2023-04-03T02:41:20;1.40;;;1.30;;
19575;SDS011;41589;51.196;7.074;2023-04-03T02:46:23;1.23;;;1.23;;
19575;SDS011;41589;51.196;7.074;2023-04-03T02:51:23;1.13;;;1.13;;
19575;SDS011;41589;51.196;7.074;2023-04-03T02:56:25;1.20;;;1.20;;
19575;SDS011;41589;51.196;7.074;2023-04-03T03:01:26;1.20;;;1.20;;
19575;SDS011;41589;51.196;7.074;2023-04-03T03:06:31;1.50;;;1.40;;
19575;SDS011;41589;51.196;7.074;2023-04-03T03:11:31;1.33;;;1.23;;
19575;SDS011;41589;51.196;7.074;2023-04-03T03:16:32;1.30;;;1.30;;
19575;SDS011;41589;51.196;7.074;2023-04-03T03:21:32;1.13;;;1.13;;
19575;SDS011;41589;51.196;7.074;2023-04-03T03:26:33;1.23;;;1.23;;
19575;SDS011;41589;51.196;7.074;2023-04-03T03:31:35;1.00;;;1.00;;
19575;SDS011;41589;51.196;7.074;2023-04-03T03:36:36;1.37;;;1.33;;
19575;SDS011;41589;51.196;7.074;2023-04-03T03:41:37;1.33;;;1.30;;
19575;SDS011;41589;51.196;7.074;2023-04-03T03:46:38;1.13;;;1.13;;
19575;SDS011;41589;51.196;7.074;2023-04-03T03:51:39;1.40;;;1.40;;
19575;SDS011;41589;51.196;7.074;2023-04-03T03:56:40;1.50;;;1.40;;
19575;SDS011;41589;51.196;7.074;2023-04-03T04:01:41;1.40;;;1.30;;
19575;SDS011;41589;51.196;7.074;2023-04-03T04:06:42;1.30;;;1.20;;
19575;SDS011;41589;51.196;7.074;2023-04-03T04:11:44;1.30;;;1.30;;
19575;SDS011;41589;51.196;7.074;2023-04-03T04:16:46;1.10;;;1.10;;
19575;SDS011;41589;51.196;7.074;2023-04-03T04:21:53;2.20;;;1.50;;
19575;SDS011;41589;51.196;7.074;2023-04-03T04:26:54;2.10;;;1.90;;
19575;SDS011;41589;51.196;7.074;2023-04-03T04:31:55;1.27;;;1.27;;
19575;SDS011;41589;51.196;7.074;2023-04-03T04:36:57;1.10;;;1.10;;
19575;SDS011;41589;51.196;7.074;2023-04-03T04:41:58;1.20;;;1.20;;
19575;SDS011;41589;51.196;7.074;2023-04-03T04:47:01;1.03;;;1.03;;
19575;SDS011;41589;51.196;7.074;2023-04-03T04:52:01;1.40;;;1.40;;
19575;SDS011;41589;51.196;7.074;2023-04-03T04:57:05;1.30;;;1.30;;
19575;SDS011;41589;51.196;7.074;2023-04-03T05:02:06;1.47;;;1.37;;
19575;SDS011;41589;51.196;7.074;2023-04-03T05:07:07;1.50;;;1.40;;
19575;SDS011;41589;51.196;7.074;2023-04-03T05:12:09;1.67;;;1.57;;
19575;SDS011;41589;51.196;7.074;2023-04-03T05:17:15;1.30;;;1.30;;
19575;SDS011;41589;51.196;7.074;2023-04-03T05:22:21;1.60;;;1.50;;
19575;SDS011;41589;51.196;7.074;2023-04-03T05:27:23;1.23;;;1.23;;
19575;SDS011;41589;51.196;7.074;2023-04-03T05:32:27;2.50;;;1.70;;
19575;SDS011;41589;51.196;7.074;2023-04-03T05:37:39;2.40;;;2.13;;
19575;SDS011;41589;51.196;7.074;2023-04-03T05:42:41;1.90;;;1.80;;
19575;SDS011;41589;51.196;7.074;2023-04-03T05:47:41;1.50;;;1.47;;
19575;SDS011;41589;51.196;7.074;2023-04-03T05:52:43;1.47;;;1.37;;
19575;SDS011;41589;51.196;7.074;2023-04-03T05:57:46;1.60;;;1.60;;
19575;SDS011;41589;51.196;7.074;2023-04-03T06:02:47;1.73;;;1.63;;
19575;SDS011;41589;51.196;7.074;2023-04-03T06:07:52;1.70;;;1.70;;
19575;SDS011;41589;51.196;7.074;2023-04-03T06:12:53;1.80;;;1.70;;
19575;SDS011;41589;51.196;7.074;2023-04-03T06:17:54;1.70;;;1.60;;
19575;SDS011;41589;51.196;7.074;2023-04-03T06:22:54;1.80;;;1.70;;
19575;SDS011;41589;51.196;7.074;2023-04-03T06:27:55;1.60;;;1.50;;
19575;SDS011;41589;51.196;7.074;2023-04-03T06:32:55;1.80;;;1.70;;
19575;SDS011;41589;51.196;7.074;2023-04-03T06:37:59;1.43;;;1.33;;
19575;SDS011;41589;51.196;7.074;2023-04-03T06:42:59;1.53;;;1.43;;
19575;SDS011;41589;51.196;7.074;2023-04-03T06:48:00;1.63;;;1.40;;
19575;SDS011;41589;51.196;7.074;2023-04-03T06:53:01;1.60;;;1.50;;
19575;SDS011;41589;51.196;7.074;2023-04-03T06:58:02;1.47;;;1.37;;
19575;SDS011;41589;51.196;7.074;2023-04-03T07:03:03;2.10;;;1.73;;
19575;SDS011;41589;51.196;7.074;2023-04-03T07:08:03;2.40;;;1.40;;
19575;SDS011;41589;51.196;7.074;2023-04-03T07:13:04;1.00;;;1.00;;
19575;SDS011;41589;51.196;7.074;2023-04-03T07:18:04;1.50;;;1.40;;
19575;SDS011;41589;51.196;7.074;2023-04-03T07:23:06;1.70;;;1.60;;
19575;SDS011;41589;51.196;7.074;2023-04-03T07:28:06;1.60;;;1.50;;
19575;SDS011;41589;51.196;7.074;2023-04-03T07:33:08;1.10;;;1.10;;
19575;SDS011;41589;51.196;7.074;2023-04-03T07:38:09;1.70;;;1.30;;
19575;SDS011;41589;51.196;7.074;2023-04-03T07:43:09;1.10;;;1.10;;
19575;SDS011;41589;51.196;7.074;2023-04-03T07:48:11;1.20;;;1.20;;
19575;SDS011;41589;51.196;7.074;2023-04-03T07:53:12;1.20;;;1.20;;
19575;SDS011;41589;51.196;7.074;2023-04-03T07:58:21;1.30;;;1.20;;
19575;SDS011;41589;51.196;7.074;2023-04-03T08:03:22;1.40;;;1.20;;
19575;SDS011;41589;51.196;7.074;2023-04-03T08:08:22;1.47;;;1.40;;
19575;SDS011;41589;51.196;7.074;2023-04-03T08:13:23;1.10;;;1.10;;
19575;SDS011;41589;51.196;7.074;2023-04-03T08:18:24;1.33;;;1.33;;
19575;SDS011;41589;51.196;7.074;2023-04-03T08:23:25;1.00;;;1.00;;
19575;SDS011;41589;51.196;7.074;2023-04-03T08:28:26;1.50;;;1.30;;
19575;SDS011;41589;51.196;7.074;2023-04-03T08:33:26;1.03;;;1.03;;
19575;SDS011;41589;51.196;7.074;2023-04-03T08:38:27;1.23;;;1.17;;
19575;SDS011;41589;51.196;7.074;2023-04-03T08:43:30;1.00;;;1.00;;
19575;SDS011;41589;51.196;7.074;2023-04-03T08:48:46;1.10;;;1.10;;
19575;SDS011;41589;51.196;7.074;2023-04-03T08:53:59;1.00;;;1.00;;
19575;SDS011;41589;51.196;7.074;2023-04-03T08:59:10;1.30;;;1.20;;
19575;SDS011;41589;51.196;7.074;2023-04-03T09:04:24;1.07;;;1.07;;
19575;SDS011;41589;51.196;7.074;2023-04-03T09:09:30;1.23;;;1.13;;
19575;SDS011;41589;51.196;7.074;2023-04-03T09:25:44;1.00;;;1.00;;
19575;SDS011;41589;51.196;7.074;2023-04-03T09:30:45;0.90;;;0.90;;
19575;SDS011;41589;51.196;7.074;2023-04-03T09:35:46;1.07;;;1.07;;
19575;SDS011;41589;51.196;7.074;2023-04-03T09:40:49;1.07;;;1.07;;
19575;SDS011;41589;51.196;7.074;2023-04-03T09:51:31;0.90;;;0.90;;
19575;SDS011;41589;51.196;7.074;2023-04-03T09:56:35;1.00;;;1.00;;
19575;SDS011;41589;51.196;7.074;2023-04-03T10:01:37;0.90;;;0.90;;
19575;SDS011;41589;51.196;7.074;2023-04-03T10:06:44;1.00;;;1.00;;
19575;SDS011;41589;51.196;7.074;2023-04-03T10:12:06;0.90;;;0.90;;
19575;SDS011;41589;51.196;7.074;2023-04-03T10:27:56;0.80;;;0.80;;
19575;SDS011;41589;51.196;7.074;2023-04-03T10:33:16;0.93;;;0.93;;
19575;SDS011;41589;51.196;7.074;2023-04-03T10:44:08;0.80;;;0.80;;
19575;SDS011;41589;51.196;7.074;2023-04-03T10:54:56;1.00;;;1.00;;
19575;SDS011;41589;51.196;7.074;2023-04-03T11:00:18;0.90;;;0.90;;
19575;SDS011;41589;51.196;7.074;2023-04-03T11:05:36;0.90;;;0.90;;
19575;SDS011;41589;51.196;7.074;2023-04-03T11:10:50;1.40;;;1.07;;
19575;SDS011;41589;51.196;7.074;2023-04-03T11:15:52;0.90;;;0.90;;
19575;SDS011;41589;51.196;7.074;2023-04-03T11:21:02;0.90;;;0.90;;
19575;SDS011;41589;51.196;7.074;2023-04-03T11:26:09;1.43;;;1.33;;
19575;SDS011;41589;51.196;7.074;2023-04-03T11:31:30;0.80;;;0.80;;
19575;SDS011;41589;51.196;7.074;2023-04-03T11:36:42;0.80;;;0.80;;
19575;SDS011;41589;51.196;7.074;2023-04-03T11:41:47;3.23;;;1.00;;
19575;SDS011;41589;51.196;7.074;2023-04-03T11:46:55;0.80;;;0.80;;
19575;SDS011;41589;51.196;7.074;2023-04-03T11:51:57;0.93;;;0.93;;
19575;SDS011;41589;51.196;7.074;2023-04-03T11:56:58;0.90;;;0.90;;
19575;SDS011;41589;51.196;7.074;2023-04-03T12:01:58;0.90;;;0.90;;
19575;SDS011;41589;51.196;7.074;2023-04-03T12:07:00;0.90;;;0.90;;
19575;SDS011;41589;51.196;7.074;2023-04-03T12:12:38;1.23;;;1.10;;
19575;SDS011;41589;51.196;7.074;2023-04-03T12:17:43;0.80;;;0.80;;
19575;SDS011;41589;51.196;7.074;2023-04-03T12:23:06;1.40;;;1.30;;
19575;SDS011;41589;51.196;7.074;2023-04-03T12:28:09;0.90;;;0.90;;
19575;SDS011;41589;51.196;7.074;2023-04-03T12:33:13;0.90;;;0.90;;
19575;SDS011;41589;51.196;7.074;2023-04-03T12:38:37;0.90;;;0.90;;
19575;SDS011;41589;51.196;7.074;2023-04-03T12:43:59;1.10;;;1.00;;
19575;SDS011;41589;51.196;7.074;2023-04-03T12:54:36;0.90;;;0.90;;
19575;SDS011;41589;51.196;7.074;2023-04-03T12:59:39;0.80;;;0.80;;
19575;SDS011;41589;51.196;7.074;2023-04-03T13:04:41;0.90;;;0.90;;
19575;SDS011;41589;51.196;7.074;2023-04-03T13:09:42;0.80;;;0.80;;
19575;SDS011;41589;51.196;7.074;2023-04-03T13:14:52;0.90;;;0.90;;
19575;SDS011;41589;51.196;7.074;2023-04-03T13:19:54;0.90;;;0.90;;
19575;SDS011;41589;51.196;7.074;2023-04-03T13:24:56;0.90;;;0.90;;
19575;SDS011;41589;51.196;7.074;2023-04-03T13:30:01;0.90;;;0.90;;
19575;SDS011;41589;51.196;7.074;2023-04-03T13:35:24;1.00;;;1.00;;
19575;SDS011;41589;51.196;7.074;2023-04-03T13:40:52;0.93;;;0.93;;
19575;SDS011;41589;51.196;7.074;2023-04-03T14:01:37;0.93;;;0.93;;
19575;SDS011;41589;51.196;7.074;2023-04-03T14:06:42;1.00;;;1.00;;
19575;SDS011;41589;51.196;7.074;2023-04-03T14:11:43;1.33;;;1.13;;
19575;SDS011;41589;51.196;7.074;2023-04-03T14:16:45;1.00;;;1.00;;
19575;SDS011;41589;51.196;7.074;2023-04-03T14:21:51;1.03;;;1.03;;
19575;SDS011;41589;51.196;7.074;2023-04-03T14:26:55;0.90;;;0.90;;
19575;SDS011;41589;51.196;7.074;2023-04-03T14:31:57;1.00;;;1.00;;
19575;SDS011;41589;51.196;7.074;2023-04-03T14:36:57;1.37;;;1.10;;
19575;SDS011;41589;51.196;7.074;2023-04-03T14:41:57;0.90;;;0.90;;
19575;SDS011;41589;51.196;7.074;2023-04-03T14:46:58;1.00;;;1.00;;
19575;SDS011;41589;51.196;7.074;2023-04-03T14:51:59;1.20;;;1.10;;
19575;SDS011;41589;51.196;7.074;2023-04-03T14:57:00;1.00;;;1.00;;
19575;SDS011;41589;51.196;7.074;2023-04-03T15:02:02;1.10;;;1.10;;
19575;SDS011;41589;51.196;7.074;2023-04-03T15:07:07;1.00;;;1.00;;
19575;SDS011;41589;51.196;7.074;2023-04-03T15:12:08;0.90;;;0.90;;
19575;SDS011;41589;51.196;7.074;2023-04-03T15:17:20;1.10;;;1.10;;
19575;SDS011;41589;51.196;7.074;2023-04-03T15:22:22;0.90;;;0.90;;
19575;SDS011;41589;51.196;7.074;2023-04-03T15:27:22;1.10;;;1.10;;
19575;SDS011;41589;51.196;7.074;2023-04-03T15:32:23;0.90;;;0.90;;
19575;SDS011;41589;51.196;7.074;2023-04-03T15:37:26;0.83;;;0.83;;
19575;SDS011;41589;51.196;7.074;2023-04-03T15:42:29;1.10;;;1.10;;
19575;SDS011;41589;51.196;7.074;2023-04-03T15:47:30;1.00;;;1.00;;
19575;SDS011;41589;51.196;7.074;2023-04-03T15:52:31;1.10;;;1.10;;
19575;SDS011;41589;51.196;7.074;2023-04-03T15:57:32;1.00;;;1.00;;
19575;SDS011;41589;51.196;7.074;2023-04-03T16:02:33;1.20;;;1.20;;
19575;SDS011;41589;51.196;7.074;2023-04-03T16:07:34;1.00;;;1.00;;
19575;SDS011;41589;51.196;7.074;2023-04-03T16:12:37;1.10;;;1.10;;
19575;SDS011;41589;51.196;7.074;2023-04-03T16:17:38;1.40;;;1.40;;
19575;SDS011;41589;51.196;7.074;2023-04-03T16:22:41;1.83;;;1.20;;
19575;SDS011;41589;51.196;7.074;2023-04-03T16:27:42;1.00;;;1.00;;
19575;SDS011;41589;51.196;7.074;2023-04-03T16:32:43;1.00;;;1.00;;
19575;SDS011;41589;51.196;7.074;2023-04-03T16:37:44;1.00;;;0.90;;
19575;SDS011;41589;51.196;7.074;2023-04-03T16:42:45;0.90;;;0.90;;
19575;SDS011;41589;51.196;7.074;2023-04-03T16:47:46;1.27;;;1.17;;
19575;SDS011;41589;51.196;7.074;2023-04-03T16:52:46;0.90;;;0.90;;
19575;SDS011;41589;51.196;7.074;2023-04-03T16:57:47;1.10;;;1.00;;
19575;SDS011;41589;51.196;7.074;2023-04-03T17:02:47;1.30;;;1.20;;
19575;SDS011;41589;51.196;7.074;2023-04-03T17:07:48;1.50;;;1.40;;
19575;SDS011;41589;51.196;7.074;2023-04-03T17:12:48;1.50;;;1.10;;
19575;SDS011;41589;51.196;7.074;2023-04-03T17:17:49;2.13;;;1.20;;
19575;SDS011;41589;51.196;7.074;2023-04-03T17:22:52;1.30;;;1.30;;
19575;SDS011;41589;51.196;7.074;2023-04-03T17:27:53;1.03;;;1.03;;
19575;SDS011;41589;51.196;7.074;2023-04-03T17:32:54;1.20;;;1.10;;
19575;SDS011;41589;51.196;7.074;2023-04-03T17:37:54;1.27;;;1.20;;
19575;SDS011;41589;51.196;7.074;2023-04-03T17:42:55;1.20;;;1.10;;
19575;SDS011;41589;51.196;7.074;2023-04-03T17:47:56;1.17;;;1.17;;
19575;SDS011;41589;51.196;7.074;2023-04-03T17:52:56;1.30;;;1.20;;
19575;SDS011;41589;51.196;7.074;2023-04-03T17:57:59;1.07;;;1.07;;
19575;SDS011;41589;51.196;7.074;2023-04-03T18:03:00;1.20;;;1.10;;
19575;SDS011;41589;51.196;7.074;2023-04-03T18:08:00;1.03;;;1.03;;
19575;SDS011;41589;51.196;7.074;2023-04-03T18:13:02;1.30;;;1.20;;
19575;SDS011;41589;51.196;7.074;2023-04-03T18:18:06;1.50;;;1.40;;
19575;SDS011;41589;51.196;7.074;2023-04-03T18:23:06;1.10;;;1.10;;
19575;SDS011;41589;51.196;7.074;2023-04-03T18:28:06;1.13;;;1.13;;
19575;SDS011;41589;51.196;7.074;2023-04-03T18:33:07;1.20;;;1.10;;
19575;SDS011;41589;51.196;7.074;2023-04-03T18:38:07;1.03;;;1.03;;
19575;SDS011;41589;51.196;7.074;2023-04-03T18:43:08;1.00;;;1.00;;
19575;SDS011;41589;51.196;7.074;2023-04-03T18:48:10;1.10;;;1.10;;
19575;SDS011;41589;51.196;7.074;2023-04-03T18:53:11;0.90;;;0.90;;
19575;SDS011;41589;51.196;7.074;2023-04-03T18:58:11;1.07;;;1.07;;
19575;SDS011;41589;51.196;7.074;2023-04-03T19:03:12;1.00;;;1.00;;
19575;SDS011;41589;51.196;7.074;2023-04-03T19:08:13;1.00;;;1.00;;
19575;SDS011;41589;51.196;7.074;2023-04-03T19:13:16;1.20;;;1.20;;
19575;SDS011;41589;51.196;7.074;2023-04-03T19:18:16;1.10;;;1.10;;
19575;SDS011;41589;51.196;7.074;2023-04-03T19:23:17;1.07;;;1.07;;
19575;SDS011;41589;51.196;7.074;2023-04-03T19:28:20;1.67;;;1.57;;
19575;SDS011;41589;51.196;7.074;2023-04-03T19:33:21;2.00;;;1.90;;
19575;SDS011;41589;51.196;7.074;2023-04-03T19:38:22;1.27;;;1.10;;
19575;SDS011;41589;51.196;7.074;2023-04-03T19:43:22;1.27;;;1.27;;
19575;SDS011;41589;51.196;7.074;2023-04-03T19:48:25;1.00;;;1.00;;
19575;SDS011;41589;51.196;7.074;2023-04-03T19:53:26;1.10;;;1.10;;
19575;SDS011;41589;51.196;7.074;2023-04-03T19:58:28;1.20;;;1.20;;
19575;SDS011;41589;51.196;7.074;2023-04-03T20:03:28;1.27;;;1.20;;
19575;SDS011;41589;51.196;7.074;2023-04-03T20:08:30;1.00;;;1.00;;
19575;SDS011;41589;51.196;7.074;2023-04-03T20:13:30;1.27;;;1.17;;
19575;SDS011;41589;51.196;7.074;2023-04-03T20:18:32;1.23;;;1.17;;
19575;SDS011;41589;51.196;7.074;2023-04-03T20:23:34;2.57;;;1.20;;
19575;SDS011;41589;51.196;7.074;2023-04-03T20:28:36;1.10;;;1.10;;
19575;SDS011;41589;51.196;7.074;2023-04-03T20:33:46;1.37;;;1.20;;
19575;SDS011;41589;51.196;7.074;2023-04-03T20:38:47;1.30;;;1.20;;
19575;SDS011;41589;51.196;7.074;2023-04-03T20:43:48;1.40;;;1.30;;
19575;SDS011;41589;51.196;7.074;2023-04-03T20:48:48;1.30;;;1.20;;
19575;SDS011;41589;51.196;7.074;2023-04-03T20:53:49;1.10;;;1.10;;
19575;SDS011;41589;51.196;7.074;2023-04-03T20:58:49;1.30;;;1.30;;
19575;SDS011;41589;51.196;7.074;2023-04-03T21:03:50;1.10;;;1.10;;
19575;SDS011;41589;51.196;7.074;2023-04-03T21:20:16;1.13;;;1.13;;
19575;SDS011;41589;51.196;7.074;2023-04-03T21:25:17;1.20;;;1.20;;
19575;SDS011;41589;51.196;7.074;2023-04-03T21:30:17;1.30;;;1.30;;
19575;SDS011;41589;51.196;7.074;2023-04-03T21:35:17;1.17;;;1.17;;
19575;SDS011;41589;51.196;7.074;2023-04-03T21:40:18;1.10;;;1.10;;
19575;SDS011;41589;51.196;7.074;2023-04-03T21:45:18;1.20;;;1.20;;
19575;SDS011;41589;51.196;7.074;2023-04-03T21:50:19;1.53;;;1.43;;
19575;SDS011;41589;51.196;7.074;2023-04-03T21:55:20;1.10;;;1.10;;
19575;SDS011;41589;51.196;7.074;2023-04-03T22:00:20;1.60;;;1.50;;
19575;SDS011;41589;51.196;7.074;2023-04-03T22:05:21;1.20;;;1.20;;
19575;SDS011;41589;51.196;7.074;2023-04-03T22:10:22;1.50;;;1.40;;
19575;SDS011;41589;51.196;7.074;2023-04-03T22:15:22;1.10;;;1.10;;
19575;SDS011;41589;51.196;7.074;2023-04-03T22:20:23;1.47;;;1.37;;
19575;SDS011;41589;51.196;7.074;2023-04-03T22:25:23;1.27;;;1.27;;
19575;SDS011;41589;51.196;7.074;2023-04-03T22:30:23;1.20;;;1.20;;
19575;SDS011;41589;51.196;7.074;2023-04-03T22:35:24;1.17;;;1.17;;
19575;SDS011;41589;51.196;7.074;2023-04-03T22:40:26;1.40;;;1.30;;
19575;SDS011;41589;51.196;7.074;2023-04-03T22:45:26;1.67;;;1.60;;
19575;SDS011;41589;51.196;7.074;2023-04-03T22:50:27;1.30;;;1.30;;
19575;SDS011;41589;51.196;7.074;2023-04-03T22:55:27;1.20;;;1.20;;
19575;SDS011;41589;51.196;7.074;2023-04-03T23:00:27;1.20;;;1.20;;
19575;SDS011;41589;51.196;7.074;2023-04-03T23:05:28;1.30;;;1.30;;
19575;SDS011;41589;51.196;7.074;2023-04-03T23:10:28;1.27;;;1.23;;
19575;SDS011;41589;51.196;7.074;2023-04-03T23:15:28;1.20;;;1.20;;
19575;SDS011;41589;51.196;7.074;2023-04-03T23:20:29;1.10;;;1.10;;
19575;SDS011;41589;51.196;7.074;2023-04-03T23:25:29;1.30;;;1.20;;
19575;SDS011;41589;51.196;7.074;2023-04-03T23:30:30;1.30;;;1.20;;
19575;SDS011;41589;51.196;7.074;2023-04-03T23:35:30;1.20;;;1.20;;
19575;SDS011;41589;51.196;7.074;2023-04-03T23:40:31;1.40;;;1.30;;
19575;SDS011;41589;51.196;7.074;2023-04-03T23:45:31;1.10;;;1.10;;
19575;SDS011;41589;51.196;7.074;2023-04-03T23:50:31;1.30;;;1.30;;
19575;SDS011;41589;51.196;7.074;2023-04-03T23:55:32;1.40;;;1.30;;
